バマコ の空港の天気 - METARとTAF

バマコ・セヌー国際空港 ( GABS / BKO ) - マリ バマコ
飛行場実況気象(Metar)
観測時間11/27 08:00 GMT (11/27 08:00 UTC)
風向・風速不定 1m/s
視程4000m
天気現象
なし
気温20℃
湿度56%
気圧1012hPa
METARGABS 270800Z VRB01KT 4000 NSC 20/11 Q1012 NOSIG
過去の天気等 Google飛行場航空写真 Wunderground天気予報

過去48時間のMETAR

飛行場予報(TAF)
発表時間: 11/27 07:21 GMT (11/27 07:21 UTC)
予報対象時間: 27日7時 GMT ~ 28日12時 GMT
風向・風速不定 2m/s 瞬間風速 7m/s
視程10km以上
なし
27日7時 GMT ~ 27日10時 GMT に一時的に
視程4000m
天気現象煙霧
TAF AMD GABS 270721Z 2707/2812 VRB04G14KT CAVOK
TEMPO 2707/2710 4000 HZ